Ana Sayfa
METAR-TAF:

METAR-TAF

Havaalanları :

Santa Fe Municipal Airport

Santa Fe, New Mexico, Amerika Birleşik Devletleri

Enlem: 35-36-38N, Boylam: 106-05-42W, yükseklik: 1934 m

Güncel hava durumu gözlemi

Rapor saat 10:53 UTC de 44 dakika önce yapıldı.
Rüzgar kuzeydan 8 kt
Sıcaklık 15°C
Nem 55%
Basınç 1016 hPa
Görüş mesafesi: 16.1 km

METAR: KSAF 161053Z AUTO 01008KT 10SM 15/06 A3001 RMK AO2 SLP048 T01500056 $

Saat: 05:37 (11:37 UTC)

Tahmin

Rapor saat 11:20 UTC de 17 dakika önce yapıldı.
Ayın 16'si saat 12 UTC'den ayın 17'si saat 12 UTC'ye kadar geçerli Tahmin
Rüzgar kuzeydan 8 kt
Görüş mesafesi: 10 km
Açık gökyüzü
Ayın 16'si saat 1900 UTC'den
Rüzgar güneybatıdan 12 kt ve 22 kt'a kadar ani rüzgarlar
Görüş mesafesi: 10 km
12000 ft yükseklikte az bulutlu
Ayın 17'si saat 0200 UTC'den
Rüzgar güneydoğudan 8 kt
Görüş mesafesi: 10 km
15000 ft yükseklikte parçalı bulutlu

TAF: KSAF 161120Z 1612/1712 01008KT P6SM SKC FM161900 22012G22KT P6SM FEW120 FM170200 14008KT P6SM SCT150

4.000'den fazla havaalanı için hava durumu gözlemleri ve tahminleri (METAR ve TAF raporları).

Kullanılabilir istasyonlar harita üzerinde sarı ve kırmızı noktalarla gösterilir.

İstasyonun adını görmek için fareyi noktanın üzerinde gezdirin.

Sonrasında hava gözlem ve tahminlerini görmek için tıklayın.

Haritayı değiştirmek için: yaklaştırmak için siyah artı işaretli yeşil düğmeye ve uzaklaştırmak için de eksi işaretli düğmeye hızla tıklayın; bitişik haritalar için yeşil okları kullanın.


METAR-TAF: